Oslo Bulk 1 — 9V8766 — position and weather

sailwx.info

Track history (hours):
 
Tides and Currents Weather Stations Pressure Air Temp Water Temp Dewpoint Dewpoint Depression Visibility Wind Speed Wind Dir Waves Ship Positions

Oslo Bulk 1

Last reported at 2017-Mar-26 01:33 UTC. Time now 2017-Mar-26 22:56 UTC.
Position S 42°56' E 147°23'.

Length 108 m; draft 7.4 m.

Type: Ship. MMSI: 564010000.

Date/timePositionNaut miles runAvg speedWind from/ knotsBaromVisibWave heightAir tempDewpointWater temp
2017-Mar-26 01:33S 42°56' E 147°23'4 3.6
2017-Mar-26 00:31S 42°53' E 147°20'0 0.0
2017-Mar-25 23:31S 42°53' E 147°20'0 0.0
2017-Mar-25 22:31S 42°53' E 147°20'0 0.0
2017-Mar-25 21:31S 42°53' E 147°20'0 0.0
2017-Mar-25 20:31S 42°53' E 147°20'1 1.3
2017-Mar-25 19:32S 42°52' E 147°21'2 2.0
2017-Mar-25 18:33S 42°50' E 147°19'0 0.0
2017-Mar-25 17:33S 42°50' E 147°19'0 0.0
2017-Mar-25 16:33S 42°50' E 147°19'0 0.0
2017-Mar-25 15:33S 42°50' E 147°19'0 0.0
2017-Mar-25 14:33S 42°50' E 147°19'0 0.0
2017-Mar-25 13:33S 42°50' E 147°19'0 0.0
2017-Mar-25 12:33S 42°50' E 147°19'0 0.0
2017-Mar-25 11:27S 42°50' E 147°19'0 0.0
2017-Mar-25 10:27S 42°50' E 147°19'0 0.0
2017-Mar-25 09:33S 42°50' E 147°19'0 0.0
2017-Mar-25 08:33S 42°50' E 147°19'0 0.0
2017-Mar-25 07:33S 42°50' E 147°19'0 0.0
2017-Mar-25 06:33S 42°50' E 147°19'0 0.0
2017-Mar-25 05:33S 42°50' E 147°19'0 0.0
2017-Mar-25 04:33S 42°50' E 147°19'0 0.0
2017-Mar-25 03:33S 42°50' E 147°19'0 0.0
2017-Mar-25 02:33S 42°50' E 147°19'0 0.0
2017-Mar-25 01:27S 42°50' E 147°19'0 0.0
2017-Mar-25 00:33S 42°50' E 147°19'0 0.0
2017-Mar-24 23:32S 42°50' E 147°19'0 0.0
2017-Mar-24 22:15S 42°50' E 147°19'0 0.0
2017-Mar-24 21:33S 42°50' E 147°19'0 0.0
2017-Mar-24 20:33S 42°50' E 147°19'0 0.0
2017-Mar-24 19:32S 42°50' E 147°19'2 2.0
2017-Mar-24 18:33S 42°52' E 147°21'5 4.8
2017-Mar-24 17:31S 42°56' E 147°23'0 0.0
2017-Mar-24 16:31S 42°56' E 147°23'0 0.0
2017-Mar-24 15:31S 42°56' E 147°23'0 0.0
2017-Mar-24 14:31S 42°56' E 147°23'0 0.0
2017-Mar-24 13:31S 42°56' E 147°23'0 0.0
2017-Mar-24 12:31S 42°56' E 147°23'0 0.0
2017-Mar-24 11:31S 42°56' E 147°23'0 0.0
2017-Mar-24 10:31S 42°56' E 147°23'0 0.0
2017-Mar-24 09:31S 42°56' E 147°23'0 0.0
2017-Mar-24 08:31S 42°56' E 147°23'0 0.0
2017-Mar-24 07:31S 42°56' E 147°23'0 0.0
2017-Mar-24 06:31S 42°56' E 147°23'0 0.0
2017-Mar-24 05:31S 42°56' E 147°23'0 0.0
2017-Mar-24 04:31S 42°56' E 147°23'0 0.1
2017-Mar-24 03:31S 42°56' E 147°23'0 0.0
2017-Mar-24 02:31S 42°56' E 147°23'0 0.0
2017-Mar-24 01:31S 42°56' E 147°23'0 0.0
2017-Mar-24 00:31S 42°56' E 147°23'0 0.0
2017-Mar-23 23:31S 42°56' E 147°23'0 0.0
2017-Mar-23 22:31S 42°56' E 147°23'0 0.0
2017-Mar-23 21:31S 42°56' E 147°23'0 0.0
2017-Mar-23 20:31S 42°56' E 147°23'0 0.0
2017-Mar-23 19:31S 42°56' E 147°23'0 0.0
2017-Mar-23 18:31S 42°56' E 147°23'0 0.0
2017-Mar-23 17:31S 42°56' E 147°23'0 0.0
2017-Mar-23 16:31S 42°56' E 147°23'0 0.0
2017-Mar-23 15:31S 42°56' E 147°23'0 0.0
2017-Mar-23 14:31S 42°56' E 147°23'0 0.0
2017-Mar-23 13:31S 42°56' E 147°23'0 0.0
2017-Mar-23 12:31S 42°56' E 147°23'0 0.1
2017-Mar-23 11:31S 42°56' E 147°23'0 0.1
2017-Mar-23 10:31S 42°56' E 147°23'0 0.0
2017-Mar-23 09:31S 42°56' E 147°23'0 0.0
2017-Mar-23 08:31S 42°56' E 147°23'0 0.0
2017-Mar-23 07:31S 42°56' E 147°23'0 0.0
2017-Mar-23 06:31S 42°56' E 147°23'0 0.0
2017-Mar-23 05:31S 42°56' E 147°23'0 0.0
2017-Mar-23 04:31S 42°56' E 147°23'0 0.0
2017-Mar-23 03:31S 42°56' E 147°23'0 0.0
2017-Mar-23 02:31S 42°56' E 147°23'0 0.0
2017-Mar-23 01:31S 42°56' E 147°23'0 0.0
2017-Mar-23 00:31S 42°56' E 147°23'0 0.0
2017-Mar-22 23:31S 42°56' E 147°23'0 0.1
2017-Mar-22 22:31S 42°56' E 147°23'0 0.0
2017-Mar-22 21:31S 42°56' E 147°23'0 0.1
2017-Mar-22 20:31S 42°56' E 147°23'0 0.0
2017-Mar-22 19:31S 42°56' E 147°23'0 0.0
2017-Mar-22 18:31S 42°56' E 147°23'0 0.0
2017-Mar-22 17:31S 42°56' E 147°23'0 0.0
2017-Mar-22 16:31S 42°56' E 147°23'0 0.1
2017-Mar-22 15:31S 42°56' E 147°23'0 0.0
2017-Mar-22 14:31S 42°56' E 147°23'0 0.0
2017-Mar-22 13:31S 42°56' E 147°23'0 0.0
2017-Mar-22 12:31S 42°56' E 147°23'0 0.0
2017-Mar-22 11:31S 42°56' E 147°23'0 0.0
2017-Mar-22 10:31S 42°56' E 147°23'0 0.0
2017-Mar-22 09:31S 42°56' E 147°23'0 0.1
2017-Mar-22 08:31S 42°56' E 147°23'0 0.0
2017-Mar-22 07:31S 42°56' E 147°23'0 0.0
2017-Mar-22 06:34S 42°56' E 147°23'0 0.0
2017-Mar-22 05:30S 42°56' E 147°23'0 0.0
2017-Mar-22 04:31S 42°56' E 147°23'0 0.0
2017-Mar-22 03:30S 42°56' E 147°23'0 0.0
2017-Mar-22 02:34S 42°56' E 147°23'0 0.0
2017-Mar-22 01:31S 42°56' E 147°23'0 0.0
2017-Mar-22 00:31S 42°56' E 147°23'0 0.0
2017-Mar-21 23:31S 42°56' E 147°23'0 0.0
2017-Mar-21 22:31S 42°56' E 147°23'0 0.0
2017-Mar-21 21:34S 42°56' E 147°23'0 0.0
2017-Mar-21 20:33S 42°56' E 147°23'0 0.0
2017-Mar-21 19:31S 42°56' E 147°23'0 0.0
2017-Mar-21 18:31S 42°56' E 147°23'0 0.0
2017-Mar-21 17:33S 42°56' E 147°23'0 0.0
2017-Mar-21 16:30S 42°56' E 147°23'0 0.0
2017-Mar-21 15:30S 42°56' E 147°23'0 0.0
2017-Mar-21 14:33S 42°56' E 147°23'0 0.0
2017-Mar-21 13:28S 42°56' E 147°23'0 0.0
2017-Mar-21 12:28S 42°56' E 147°23'0 0.0
2017-Mar-21 11:30S 42°56' E 147°23'0 0.1
2017-Mar-21 10:34S 42°56' E 147°23'0 0.0
2017-Mar-21 09:34S 42°56' E 147°23'0 0.0
2017-Mar-21 08:33S 42°56' E 147°23'0 0.0
2017-Mar-21 07:33S 42°56' E 147°23'0 0.0
2017-Mar-21 06:33S 42°56' E 147°23'  
2017-Mar-16 05:29S 33°22' E 151°41'18 6.1
2017-Mar-16 02:31S 33°07' E 151°54'  
Track history (hours):
 
Tides and Currents Weather Stations Pressure Air Temp Water Temp Dewpoint Dewpoint Depression Visibility Wind Speed Wind Dir Waves Ship Positions

Oslo Bulk 1

Last reported at 2017-Mar-26 01:33 UTC. Time now 2017-Mar-26 22:56 UTC.
Position S 42°56' E 147°23'.

Length 108 m; draft 7.4 m.

Type: Ship. MMSI: 564010000.

Date/timePositionNaut miles runAvg speedWind from/ knotsBaromVisibWave heightAir tempDewpointWater temp
2017-Mar-26 01:33S 42°56' E 147°23'4 3.6
2017-Mar-26 00:31S 42°53' E 147°20'0 0.0
2017-Mar-25 23:31S 42°53' E 147°20'0 0.0
2017-Mar-25 22:31S 42°53' E 147°20'0 0.0
2017-Mar-25 21:31S 42°53' E 147°20'0 0.0
2017-Mar-25 20:31S 42°53' E 147°20'1 1.3
2017-Mar-25 19:32S 42°52' E 147°21'2 2.0
2017-Mar-25 18:33S 42°50' E 147°19'0 0.0
2017-Mar-25 17:33S 42°50' E 147°19'0 0.0
2017-Mar-25 16:33S 42°50' E 147°19'0 0.0
2017-Mar-25 15:33S 42°50' E 147°19'0 0.0
2017-Mar-25 14:33S 42°50' E 147°19'0 0.0
2017-Mar-25 13:33S 42°50' E 147°19'0 0.0
2017-Mar-25 12:33S 42°50' E 147°19'0 0.0
2017-Mar-25 11:27S 42°50' E 147°19'0 0.0
2017-Mar-25 10:27S 42°50' E 147°19'0 0.0
2017-Mar-25 09:33S 42°50' E 147°19'0 0.0
2017-Mar-25 08:33S 42°50' E 147°19'0 0.0
2017-Mar-25 07:33S 42°50' E 147°19'0 0.0
2017-Mar-25 06:33S 42°50' E 147°19'0 0.0
2017-Mar-25 05:33S 42°50' E 147°19'0 0.0
2017-Mar-25 04:33S 42°50' E 147°19'0 0.0
2017-Mar-25 03:33S 42°50' E 147°19'0 0.0
2017-Mar-25 02:33S 42°50' E 147°19'0 0.0
2017-Mar-25 01:27S 42°50' E 147°19'0 0.0
2017-Mar-25 00:33S 42°50' E 147°19'0 0.0
2017-Mar-24 23:32S 42°50' E 147°19'0 0.0
2017-Mar-24 22:15S 42°50' E 147°19'0 0.0
2017-Mar-24 21:33S 42°50' E 147°19'0 0.0
2017-Mar-24 20:33S 42°50' E 147°19'0 0.0
2017-Mar-24 19:32S 42°50' E 147°19'2 2.0
2017-Mar-24 18:33S 42°52' E 147°21'5 4.8
2017-Mar-24 17:31S 42°56' E 147°23'0 0.0
2017-Mar-24 16:31S 42°56' E 147°23'0 0.0
2017-Mar-24 15:31S 42°56' E 147°23'0 0.0
2017-Mar-24 14:31S 42°56' E 147°23'0 0.0
2017-Mar-24 13:31S 42°56' E 147°23'0 0.0
2017-Mar-24 12:31S 42°56' E 147°23'0 0.0
2017-Mar-24 11:31S 42°56' E 147°23'0 0.0
2017-Mar-24 10:31S 42°56' E 147°23'0 0.0
2017-Mar-24 09:31S 42°56' E 147°23'0 0.0
2017-Mar-24 08:31S 42°56' E 147°23'0 0.0
2017-Mar-24 07:31S 42°56' E 147°23'0 0.0
2017-Mar-24 06:31S 42°56' E 147°23'0 0.0
2017-Mar-24 05:31S 42°56' E 147°23'0 0.0
2017-Mar-24 04:31S 42°56' E 147°23'0 0.1
2017-Mar-24 03:31S 42°56' E 147°23'0 0.0
2017-Mar-24 02:31S 42°56' E 147°23'0 0.0
2017-Mar-24 01:31S 42°56' E 147°23'0 0.0
2017-Mar-24 00:31S 42°56' E 147°23'0 0.0
2017-Mar-23 23:31S 42°56' E 147°23'0 0.0
2017-Mar-23 22:31S 42°56' E 147°23'0 0.0
2017-Mar-23 21:31S 42°56' E 147°23'0 0.0
2017-Mar-23 20:31S 42°56' E 147°23'0 0.0
2017-Mar-23 19:31S 42°56' E 147°23'0 0.0
2017-Mar-23 18:31S 42°56' E 147°23'0 0.0
2017-Mar-23 17:31S 42°56' E 147°23'0 0.0
2017-Mar-23 16:31S 42°56' E 147°23'0 0.0
2017-Mar-23 15:31S 42°56' E 147°23'0 0.0
2017-Mar-23 14:31S 42°56' E 147°23'0 0.0
2017-Mar-23 13:31S 42°56' E 147°23'0 0.0
2017-Mar-23 12:31S 42°56' E 147°23'0 0.1
2017-Mar-23 11:31S 42°56' E 147°23'0 0.1
2017-Mar-23 10:31S 42°56' E 147°23'0 0.0
2017-Mar-23 09:31S 42°56' E 147°23'0 0.0
2017-Mar-23 08:31S 42°56' E 147°23'0 0.0
2017-Mar-23 07:31S 42°56' E 147°23'0 0.0
2017-Mar-23 06:31S 42°56' E 147°23'0 0.0
2017-Mar-23 05:31S 42°56' E 147°23'0 0.0
2017-Mar-23 04:31S 42°56' E 147°23'0 0.0
2017-Mar-23 03:31S 42°56' E 147°23'0 0.0
2017-Mar-23 02:31S 42°56' E 147°23'0 0.0
2017-Mar-23 01:31S 42°56' E 147°23'0 0.0
2017-Mar-23 00:31S 42°56' E 147°23'0 0.0
2017-Mar-22 23:31S 42°56' E 147°23'0 0.1
2017-Mar-22 22:31S 42°56' E 147°23'0 0.0
2017-Mar-22 21:31S 42°56' E 147°23'0 0.1
2017-Mar-22 20:31S 42°56' E 147°23'0 0.0
2017-Mar-22 19:31S 42°56' E 147°23'0 0.0
2017-Mar-22 18:31S 42°56' E 147°23'0 0.0
2017-Mar-22 17:31S 42°56' E 147°23'0 0.0
2017-Mar-22 16:31S 42°56' E 147°23'0 0.1
2017-Mar-22 15:31S 42°56' E 147°23'0 0.0
2017-Mar-22 14:31S 42°56' E 147°23'0 0.0
2017-Mar-22 13:31S 42°56' E 147°23'0 0.0
2017-Mar-22 12:31S 42°56' E 147°23'0 0.0
2017-Mar-22 11:31S 42°56' E 147°23'0 0.0
2017-Mar-22 10:31S 42°56' E 147°23'0 0.0
2017-Mar-22 09:31S 42°56' E 147°23'0 0.1
2017-Mar-22 08:31S 42°56' E 147°23'0 0.0
2017-Mar-22 07:31S 42°56' E 147°23'0 0.0
2017-Mar-22 06:34S 42°56' E 147°23'0 0.0
2017-Mar-22 05:30S 42°56' E 147°23'0 0.0
2017-Mar-22 04:31S 42°56' E 147°23'0 0.0
2017-Mar-22 03:30S 42°56' E 147°23'0 0.0
2017-Mar-22 02:34S 42°56' E 147°23'0 0.0
2017-Mar-22 01:31S 42°56' E 147°23'0 0.0
2017-Mar-22 00:31S 42°56' E 147°23'0 0.0
2017-Mar-21 23:31S 42°56' E 147°23'0 0.0
2017-Mar-21 22:31S 42°56' E 147°23'0 0.0
2017-Mar-21 21:34S 42°56' E 147°23'0 0.0
2017-Mar-21 20:33S 42°56' E 147°23'0 0.0
2017-Mar-21 19:31S 42°56' E 147°23'0 0.0
2017-Mar-21 18:31S 42°56' E 147°23'0 0.0
2017-Mar-21 17:33S 42°56' E 147°23'0 0.0
2017-Mar-21 16:30S 42°56' E 147°23'0 0.0
2017-Mar-21 15:30S 42°56' E 147°23'0 0.0
2017-Mar-21 14:33S 42°56' E 147°23'0 0.0
2017-Mar-21 13:28S 42°56' E 147°23'0 0.0
2017-Mar-21 12:28S 42°56' E 147°23'0 0.0
2017-Mar-21 11:30S 42°56' E 147°23'0 0.1
2017-Mar-21 10:34S 42°56' E 147°23'0 0.0
2017-Mar-21 09:34S 42°56' E 147°23'0 0.0
2017-Mar-21 08:33S 42°56' E 147°23'0 0.0
2017-Mar-21 07:33S 42°56' E 147°23'0 0.0
2017-Mar-21 06:33S 42°56' E 147°23'  
2017-Mar-16 05:29S 33°22' E 151°41'18 6.1
2017-Mar-16 02:31S 33°07' E 151°54'  

Dump ship's entire track history